createdAt,value
2022-08-28T00:03:59.909Z,3.17
2022-08-28T00:09:21.919Z,3.33
2022-08-28T00:14:42.707Z,3.38
2022-08-28T00:20:07.863Z,3.10
2022-08-28T00:25:30.517Z,3.10
2022-08-28T00:30:53.610Z,4.30
2022-08-28T00:36:14.534Z,3.30
2022-08-28T00:41:38.831Z,2.90
2022-08-28T00:47:02.433Z,3.30
2022-08-28T00:52:26.883Z,3.80
2022-08-28T01:03:11.926Z,3.03
2022-08-28T01:08:35.333Z,3.40
2022-08-28T01:14:01.947Z,3.40
2022-08-28T01:19:40.420Z,3.00
2022-08-28T01:25:05.245Z,3.05
2022-08-28T01:35:48.068Z,2.83
2022-08-28T01:41:11.058Z,2.88
2022-08-28T01:46:32.748Z,3.92
2022-08-28T01:51:54.761Z,3.72
2022-08-28T01:57:17.877Z,2.90
2022-08-28T02:02:40.096Z,3.25
2022-08-28T02:08:04.111Z,3.47
2022-08-28T02:13:25.629Z,3.53
2022-08-28T02:18:46.373Z,4.00
2022-08-28T02:24:07.271Z,3.53
2022-08-28T02:29:28.765Z,3.42
2022-08-28T02:34:49.627Z,4.00
2022-08-28T02:40:16.547Z,4.00
2022-08-28T02:45:37.939Z,3.40
2022-08-28T02:51:00.500Z,4.43
2022-08-28T02:56:21.285Z,3.53
2022-08-28T03:01:42.103Z,3.70
2022-08-28T03:07:04.297Z,3.88
2022-08-28T03:12:25.416Z,3.47
2022-08-28T03:17:49.123Z,3.00
2022-08-28T03:23:27.879Z,3.20
2022-08-28T03:28:52.423Z,3.10
2022-08-28T03:39:34.449Z,3.58
2022-08-28T03:44:55.007Z,3.35
2022-08-28T03:50:17.704Z,2.97
2022-08-28T03:55:41.900Z,3.67
2022-08-28T04:01:02.881Z,3.10
2022-08-28T04:06:23.924Z,3.63
2022-08-28T04:11:44.640Z,3.10
2022-08-28T04:17:06.213Z,3.15
2022-08-28T04:22:27.482Z,3.80
2022-08-28T04:27:48.598Z,3.13
2022-08-28T04:33:10.532Z,3.35
2022-08-28T04:38:31.519Z,3.50
2022-08-28T04:43:52.956Z,3.30
2022-08-28T04:49:15.132Z,3.90
2022-08-28T04:54:36.066Z,4.00
2022-08-28T04:59:58.644Z,3.33
2022-08-28T05:05:19.896Z,4.63
2022-08-28T05:10:43.229Z,4.28
2022-08-28T05:16:04.665Z,3.60
2022-08-28T05:21:25.091Z,3.42
2022-08-28T05:26:48.264Z,3.50
2022-08-28T05:32:09.496Z,4.17
2022-08-28T05:37:30.245Z,3.50
2022-08-28T05:42:54.204Z,3.83
2022-08-28T05:48:16.214Z,3.90
2022-08-28T05:53:42.480Z,4.40
2022-08-28T05:59:05.688Z,4.45
2022-08-28T06:04:27.707Z,3.50
2022-08-28T06:09:48.138Z,3.35
2022-08-28T06:15:09.214Z,4.05
2022-08-28T06:20:29.806Z,3.83
2022-08-28T06:25:52.364Z,4.03
2022-08-28T06:31:23.393Z,3.15
2022-08-28T06:36:48.579Z,3.63
2022-08-28T06:42:12.372Z,3.20
2022-08-28T06:47:32.868Z,3.60
2022-08-28T06:52:53.643Z,4.28
2022-08-28T06:58:14.673Z,3.67
2022-08-28T07:03:35.247Z,3.97
2022-08-28T07:08:56.148Z,4.65
2022-08-28T07:14:17.082Z,3.17
2022-08-28T07:19:37.819Z,3.92
2022-08-28T07:24:59.061Z,3.83
2022-08-28T07:30:21.338Z,3.90
2022-08-28T07:35:46.588Z,3.25
2022-08-28T07:41:16.287Z,3.70
2022-08-28T07:46:38.618Z,3.55
2022-08-28T07:51:59.431Z,4.15
2022-08-28T07:57:21.175Z,4.47
2022-08-28T08:02:43.636Z,3.63
2022-08-28T08:08:04.395Z,2.78
2022-08-28T08:13:25.528Z,3.45
2022-08-28T08:18:48.156Z,3.90
2022-08-28T08:24:08.996Z,4.22
2022-08-28T08:29:35.444Z,4.15
2022-08-28T08:34:56.208Z,4.05
2022-08-28T08:40:19.564Z,3.55
2022-08-28T08:45:43.167Z,4.63
2022-08-28T08:51:14.231Z,4.28
2022-08-28T08:56:35.341Z,3.72
2022-08-28T09:02:18.123Z,3.88
2022-08-28T09:07:44.930Z,4.65
2022-08-28T09:13:25.942Z,5.40
2022-08-28T09:18:48.447Z,3.85
2022-08-28T09:24:25.988Z,3.75
2022-08-28T09:29:55.411Z,4.97
2022-08-28T09:35:32.985Z,4.63
2022-08-28T09:41:28.958Z,4.10
2022-08-28T09:46:52.139Z,3.42
2022-08-28T09:52:25.143Z,3.97
2022-08-28T09:57:47.168Z,4.32
2022-08-28T10:03:21.534Z,4.13
2022-08-28T10:09:11.848Z,4.97
2022-08-28T10:14:59.293Z,4.35
2022-08-28T10:20:31.369Z,4.47
2022-08-28T10:26:02.908Z,4.82
2022-08-28T10:31:51.190Z,4.57
2022-08-28T10:37:36.786Z,4.32
2022-08-28T10:43:10.531Z,4.53
2022-08-28T10:48:42.908Z,4.75
2022-08-28T10:54:12.529Z,4.55
2022-08-28T10:59:42.382Z,4.63
2022-08-28T11:05:04.047Z,4.78
2022-08-28T11:10:36.785Z,4.63
2022-08-28T11:15:57.338Z,3.58
2022-08-28T11:21:27.192Z,5.10
2022-08-28T11:26:58.945Z,4.30
2022-08-28T11:32:47.012Z,4.55
2022-08-28T11:38:08.615Z,3.90
2022-08-28T11:43:28.980Z,4.93
2022-08-28T11:48:52.258Z,5.03
2022-08-28T11:54:26.527Z,4.00
2022-08-28T12:00:01.889Z,5.10
2022-08-28T12:05:31.407Z,4.22
2022-08-28T12:10:56.016Z,4.65
2022-08-28T12:21:38.923Z,4.40
2022-08-28T12:27:02.951Z,4.68
2022-08-28T12:32:46.432Z,4.20
2022-08-28T12:38:09.319Z,3.70
2022-08-28T12:43:35.792Z,3.35
2022-08-28T12:49:05.127Z,4.28
2022-08-28T12:54:25.844Z,4.37
2022-08-28T12:59:51.601Z,4.40
2022-08-28T13:05:26.300Z,4.28
2022-08-28T13:10:51.487Z,3.80
2022-08-28T13:16:33.340Z,4.05
2022-08-28T13:22:00.483Z,4.20
2022-08-28T13:27:23.468Z,4.38
2022-08-28T13:32:56.398Z,3.78
2022-08-28T13:38:19.764Z,4.13
2022-08-28T13:43:47.023Z,3.60
2022-08-28T13:49:07.760Z,3.72
2022-08-28T13:54:28.436Z,3.60
2022-08-28T13:59:53.553Z,4.22
2022-08-28T14:05:16.355Z,5.18
2022-08-28T14:10:37.013Z,3.50
2022-08-28T14:15:57.957Z,4.03
2022-08-28T14:21:19.602Z,4.05
2022-08-28T14:26:40.378Z,3.53
2022-08-28T14:32:01.892Z,3.58
2022-08-28T14:37:22.940Z,5.22
2022-08-28T14:42:43.903Z,4.38
2022-08-28T14:48:04.724Z,4.72
2022-08-28T14:53:27.576Z,4.45
2022-08-28T14:58:48.516Z,4.20
2022-08-28T15:04:12.675Z,3.85
2022-08-28T15:09:41.934Z,5.10
2022-08-28T15:15:04.028Z,4.50
2022-08-28T15:20:24.825Z,5.60
2022-08-28T15:25:45.899Z,5.75
2022-08-28T15:31:06.563Z,4.22
2022-08-28T15:36:27.056Z,5.28
2022-08-28T15:41:48.113Z,4.82
2022-08-28T15:47:09.303Z,5.35
2022-08-28T15:52:29.832Z,5.68
2022-08-28T15:57:50.332Z,5.68
2022-08-28T16:03:10.879Z,5.60
2022-08-28T16:08:31.883Z,5.75
2022-08-28T16:13:52.749Z,4.80
2022-08-28T16:19:13.633Z,5.22
2022-08-28T16:24:34.806Z,6.57
2022-08-28T16:29:55.496Z,5.88
2022-08-28T16:35:17.977Z,5.78
2022-08-28T16:40:45.748Z,5.78
2022-08-28T16:46:16.917Z,4.90
2022-08-28T16:51:39.018Z,6.00
2022-08-28T16:56:59.544Z,5.55
2022-08-28T17:02:26.528Z,5.32
2022-08-28T17:07:48.029Z,5.10
2022-08-28T17:13:08.707Z,6.53
2022-08-28T17:18:29.498Z,5.70
2022-08-28T17:23:50.029Z,6.57
2022-08-28T17:29:11.011Z,5.53
2022-08-28T17:34:31.453Z,4.88
2022-08-28T17:39:53.444Z,5.57
2022-08-28T17:45:15.157Z,4.38
2022-08-28T17:50:35.723Z,4.80
2022-08-28T17:55:56.795Z,4.85
2022-08-28T18:01:22.480Z,5.22
2022-08-28T18:06:43.620Z,4.50
2022-08-28T18:12:06.774Z,4.47
2022-08-28T18:17:33.364Z,6.03
2022-08-28T18:22:54.465Z,5.93
2022-08-28T18:28:22.235Z,5.63
2022-08-28T18:33:43.032Z,5.40
2022-08-28T18:39:04.303Z,5.50
2022-08-28T18:44:25.280Z,6.13
2022-08-28T18:49:46.527Z,5.75
2022-08-28T18:55:08.306Z,7.18
2022-08-28T19:00:30.179Z,5.75
2022-08-28T19:05:51.942Z,6.50
2022-08-28T19:11:14.099Z,7.03
2022-08-28T19:16:35.490Z,6.53
2022-08-28T19:21:56.754Z,6.50
2022-08-28T19:27:17.535Z,6.15
2022-08-28T19:32:38.896Z,7.15
2022-08-28T19:37:59.548Z,7.03
2022-08-28T19:43:31.160Z,6.63
2022-08-28T19:49:10.248Z,6.78
2022-08-28T19:54:39.329Z,6.10
2022-08-28T20:00:00.631Z,7.40
2022-08-28T20:05:38.158Z,5.70
2022-08-28T20:11:42.440Z,7.63
2022-08-28T20:17:26.312Z,5.72
2022-08-28T20:22:48.994Z,4.78
2022-08-28T20:28:16.648Z,6.50
2022-08-28T20:33:39.665Z,5.45
2022-08-28T20:39:06.978Z,6.65
2022-08-28T20:44:27.539Z,7.05
2022-08-28T20:49:48.153Z,6.63
2022-08-28T20:55:09.763Z,6.80
2022-08-28T21:00:30.673Z,6.68
2022-08-28T21:05:51.209Z,6.13
2022-08-28T21:11:11.848Z,6.10
2022-08-28T21:16:38.081Z,5.47
2022-08-28T21:21:59.029Z,6.63
2022-08-28T21:27:19.411Z,7.47
2022-08-28T21:32:40.229Z,6.18
2022-08-28T21:38:00.754Z,6.55
2022-08-28T21:43:21.405Z,6.82
2022-08-28T21:48:42.525Z,6.35
2022-08-28T21:54:03.692Z,6.50
2022-08-28T21:59:24.255Z,6.32
2022-08-28T22:04:48.996Z,5.93
2022-08-28T22:10:09.906Z,6.38
2022-08-28T22:15:31.985Z,6.20
2022-08-28T22:21:11.431Z,5.90
2022-08-28T22:26:31.981Z,6.78
2022-08-28T22:31:52.948Z,6.43
2022-08-28T22:37:13.713Z,4.85
2022-08-28T22:42:38.361Z,5.60
2022-08-28T22:47:59.336Z,5.40
2022-08-28T22:53:21.260Z,5.65
2022-08-28T22:58:42.132Z,5.28
2022-08-28T23:04:04.041Z,5.75
2022-08-28T23:09:24.668Z,4.55
2022-08-28T23:14:48.533Z,4.70
2022-08-28T23:20:12.783Z,5.28
2022-08-28T23:25:34.363Z,4.35
2022-08-28T23:30:54.878Z,4.78
2022-08-28T23:36:15.430Z,4.50
2022-08-28T23:41:38.613Z,4.80
2022-08-28T23:47:00.614Z,4.93
2022-08-28T23:52:24.848Z,3.75
2022-08-28T23:57:46.910Z,4.45
